createdAt,value
2018-06-10T00:01:37.371Z,100904.69
2018-06-10T00:06:39.519Z,100903.62
2018-06-10T00:11:41.692Z,100908.73
2018-06-10T00:16:43.844Z,100903.64
2018-06-10T00:21:45.970Z,100895.91
2018-06-10T00:26:48.117Z,100880.49
2018-06-10T00:31:50.586Z,100873.69
2018-06-10T00:36:52.769Z,100869.05
2018-06-10T00:41:54.913Z,100869.48
2018-06-10T00:46:57.084Z,100863.96
2018-06-10T00:51:59.294Z,100863.13
2018-06-10T00:57:01.467Z,100864.88
2018-06-10T01:02:03.591Z,100858.94
2018-06-10T01:07:05.718Z,100860.27
2018-06-10T01:12:07.898Z,100860.73
2018-06-10T01:17:10.098Z,100858.96
2018-06-10T01:22:12.207Z,100849.45
2018-06-10T01:27:14.376Z,100846.89
2018-06-10T01:32:16.514Z,100839.66
2018-06-10T01:37:18.648Z,100835.39
2018-06-10T01:42:20.788Z,100837.98
2018-06-10T01:47:22.975Z,100841.88
2018-06-10T01:52:25.143Z,100837.22
2018-06-10T01:57:27.304Z,100841.86
2018-06-10T02:02:29.441Z,100831.58
2018-06-10T02:07:31.570Z,100836.82
2018-06-10T02:12:33.710Z,100831.22
2018-06-10T02:17:35.863Z,100830.40
2018-06-10T02:22:38.014Z,100823.98
2018-06-10T02:27:40.173Z,100816.01
2018-06-10T02:32:42.320Z,100808.20
2018-06-10T02:37:44.425Z,100809.48
2018-06-10T02:42:46.702Z,100826.14
2018-06-10T02:47:48.884Z,100837.56
2018-06-10T02:52:51.053Z,100830.58
2018-06-10T02:57:53.211Z,100815.09
2018-06-10T03:02:55.347Z,100806.22
2018-06-10T03:07:57.532Z,100797.30
2018-06-10T03:12:59.665Z,100800.21
2018-06-10T03:18:01.825Z,100792.84
2018-06-10T03:23:04.068Z,100791.12
2018-06-10T03:28:06.212Z,100783.95
2018-06-10T03:33:08.360Z,100783.33
2018-06-10T03:38:10.506Z,100784.67
2018-06-10T03:43:12.651Z,100777.77
2018-06-10T03:48:14.811Z,100776.17
2018-06-10T03:53:16.956Z,100788.17
2018-06-10T03:58:19.070Z,100778.67
2018-06-10T04:03:21.191Z,100774.38
2018-06-10T04:08:23.347Z,100771.79
2018-06-10T04:13:25.471Z,100765.81
2018-06-10T04:18:27.611Z,100775.20
2018-06-10T04:23:29.726Z,100778.52
2018-06-10T04:28:31.878Z,100799.83
2018-06-10T04:33:33.978Z,100825.59
2018-06-10T04:38:36.106Z,100824.45
2018-06-10T04:43:38.237Z,100820.31
2018-06-10T04:48:40.387Z,100828.84
2018-06-10T04:53:42.548Z,100817.28
2018-06-10T04:58:44.702Z,100815.58
2018-06-10T05:03:46.851Z,100823.63
2018-06-10T05:08:48.977Z,100812.17
2018-06-10T05:13:51.133Z,100802.73
2018-06-10T05:18:53.289Z,100793.74
2018-06-10T05:23:55.469Z,100797.58
2018-06-10T05:28:57.597Z,100785.55
2018-06-10T05:34:00.052Z,100779.50
2018-06-10T05:39:02.269Z,100773.75
2018-06-10T05:44:04.723Z,100759.53
2018-06-10T05:49:06.842Z,100756.84
2018-06-10T05:54:09.011Z,100752.37
2018-06-10T05:59:11.153Z,100743.69
2018-06-10T06:04:13.294Z,100740.70
2018-06-10T06:09:15.447Z,100741.19
2018-06-10T06:14:17.613Z,100740.80
2018-06-10T06:19:19.755Z,100735.25
2018-06-10T06:24:21.929Z,100735.59
2018-06-10T06:29:24.103Z,100729.44
2018-06-10T06:34:26.217Z,100718.56
2018-06-10T06:39:28.380Z,100717.05
2018-06-10T06:44:30.544Z,100721.21
2018-06-10T06:49:32.671Z,100723.95
2018-06-10T06:54:34.876Z,100723.03
2018-06-10T06:59:37.050Z,100729.23
2018-06-10T07:04:39.208Z,100730.00
2018-06-10T07:09:41.376Z,100732.80
2018-06-10T07:14:43.569Z,100744.70
2018-06-10T07:19:46.416Z,100749.98
2018-06-10T07:24:49.327Z,100755.84
2018-06-10T07:29:52.533Z,100760.05
2018-06-10T07:34:55.441Z,100767.12
2018-06-10T07:39:58.160Z,100755.33
2018-06-10T07:45:01.217Z,100765.61
2018-06-10T07:50:04.247Z,100774.75
2018-06-10T07:55:07.830Z,100771.39
2018-06-10T08:00:10.769Z,100780.78
2018-06-10T08:05:14.493Z,100776.81
2018-06-10T08:10:17.295Z,100771.12
2018-06-10T08:15:20.063Z,100753.92
2018-06-10T08:20:22.354Z,100747.74
2018-06-10T08:25:25.847Z,100753.87
2018-06-10T08:30:29.363Z,100772.98
2018-06-10T08:35:32.798Z,100775.50
2018-06-10T08:40:35.835Z,100777.48
2018-06-10T08:45:39.293Z,100768.03
2018-06-10T08:50:42.777Z,100762.39
2018-06-10T08:55:46.479Z,100766.61
2018-06-10T09:00:49.256Z,100784.80
2018-06-10T09:05:51.998Z,100780.23
2018-06-10T09:10:54.220Z,100786.77
2018-06-10T09:15:56.458Z,100783.09
2018-06-10T09:20:58.604Z,100788.95
2018-06-10T09:26:00.768Z,100787.70
2018-06-10T09:31:02.963Z,100802.84
2018-06-10T09:36:05.127Z,100808.83
2018-06-10T09:41:07.289Z,100800.44
2018-06-10T09:46:09.464Z,100805.44
2018-06-10T09:51:11.576Z,100816.77
2018-06-10T09:56:13.774Z,100837.87
2018-06-10T10:01:16.005Z,100863.36
2018-06-10T10:06:18.182Z,100849.56
2018-06-10T10:11:20.327Z,100869.24
2018-06-10T10:16:22.521Z,100875.77
2018-06-10T10:21:24.679Z,100865.43
2018-06-10T10:26:26.860Z,100870.93
2018-06-10T10:31:29.044Z,100868.25
2018-06-10T10:36:31.205Z,100870.80
2018-06-10T10:41:33.414Z,100875.81
2018-06-10T10:46:35.585Z,100873.58
2018-06-10T10:51:37.760Z,100866.73
2018-06-10T10:56:39.961Z,100861.09
2018-06-10T11:01:42.190Z,100868.02
2018-06-10T11:06:44.388Z,100860.23
2018-06-10T11:11:46.551Z,100855.80
2018-06-10T11:16:48.802Z,100857.18
2018-06-10T11:21:50.995Z,100855.54
2018-06-10T11:26:53.172Z,100848.22
2018-06-10T11:31:55.370Z,100841.93
2018-06-10T11:36:57.563Z,100865.70
2018-06-10T11:41:59.727Z,100867.81
2018-06-10T11:47:02.368Z,100867.00
2018-06-10T11:52:04.608Z,100858.86
2018-06-10T11:57:06.896Z,100846.33
2018-06-10T12:02:09.105Z,100834.33
2018-06-10T12:07:11.301Z,100813.42
2018-06-10T12:12:13.533Z,100824.52
2018-06-10T12:17:15.822Z,100808.48
2018-06-10T12:22:18.024Z,100799.52
2018-06-10T12:27:20.229Z,100795.12
2018-06-10T12:32:22.408Z,100789.78
2018-06-10T12:37:24.584Z,100781.43
2018-06-10T12:42:26.850Z,100783.78
2018-06-10T12:47:29.040Z,100763.00
2018-06-10T12:52:31.226Z,100755.89
2018-06-10T12:57:33.468Z,100736.16
2018-06-10T13:02:35.658Z,100733.12
2018-06-10T13:07:37.835Z,100726.70
2018-06-10T13:12:40.044Z,100727.80
2018-06-10T13:17:42.258Z,100719.52
2018-06-10T13:22:44.485Z,100727.03
2018-06-10T13:27:46.641Z,100720.12
2018-06-10T13:32:48.870Z,100730.55
2018-06-10T13:37:51.041Z,100737.95
2018-06-10T13:42:53.243Z,100726.26
2018-06-10T13:47:55.443Z,100713.78
2018-06-10T13:52:57.611Z,100721.78
2018-06-10T13:57:59.853Z,100722.88
2018-06-10T14:03:02.040Z,100728.89
2018-06-10T14:08:04.312Z,100732.11
2018-06-10T14:13:06.497Z,100749.79
2018-06-10T14:18:08.757Z,100752.63
2018-06-10T14:23:11.001Z,100770.54
2018-06-10T14:28:13.160Z,100776.45
2018-06-10T14:33:15.731Z,100773.41
2018-06-10T14:38:17.962Z,100771.07
2018-06-10T14:43:20.275Z,100773.48
2018-06-10T14:48:22.633Z,100767.61
2018-06-10T14:53:24.868Z,100753.58
2018-06-10T14:58:27.084Z,100750.76
2018-06-10T15:03:29.362Z,100756.06
2018-06-10T15:08:31.584Z,100754.75
2018-06-10T15:13:33.871Z,100767.89
2018-06-10T15:18:36.092Z,100766.19
2018-06-10T15:23:38.273Z,100775.06
2018-06-10T15:28:40.480Z,100780.07
2018-06-10T15:33:42.954Z,100778.72
2018-06-10T15:38:45.179Z,100782.97
2018-06-10T15:43:47.379Z,100784.16
2018-06-10T15:48:49.636Z,100790.58
2018-06-10T15:53:51.877Z,100788.79
2018-06-10T15:58:54.118Z,100791.44
2018-06-10T16:03:56.352Z,100793.91
2018-06-10T16:08:58.519Z,100793.10
2018-06-10T16:14:00.713Z,100795.30
2018-06-10T16:19:02.972Z,100795.75
2018-06-10T16:24:05.149Z,100798.18
2018-06-10T16:29:07.380Z,100794.72
2018-06-10T16:34:09.617Z,100798.16
2018-06-10T16:39:11.854Z,100802.84
2018-06-10T16:44:14.137Z,100809.08
2018-06-10T16:49:16.423Z,100791.73
2018-06-10T16:54:18.629Z,100794.59
2018-06-10T16:59:20.890Z,100786.46
2018-06-10T17:04:23.093Z,100790.55
2018-06-10T17:09:25.263Z,100784.38
2018-06-10T17:14:27.491Z,100789.42
2018-06-10T17:19:29.712Z,100786.73
2018-06-10T17:24:32.266Z,100790.34
2018-06-10T17:29:34.464Z,100787.57
2018-06-10T17:34:36.718Z,100788.77
2018-06-10T17:39:38.902Z,100788.56
2018-06-10T17:44:41.169Z,100777.75
2018-06-10T17:49:43.361Z,100761.91
2018-06-10T17:54:45.602Z,100771.49
2018-06-10T17:59:47.924Z,100782.42
2018-06-10T18:04:50.178Z,100778.27
2018-06-10T18:09:52.383Z,100790.70
2018-06-10T18:14:54.686Z,100801.43
2018-06-10T18:19:56.959Z,100792.93
2018-06-10T18:24:59.145Z,100793.84
2018-06-10T18:30:01.409Z,100790.04
2018-06-10T18:35:04.269Z,100784.08
2018-06-10T18:40:06.496Z,100782.00
2018-06-10T18:45:08.729Z,100780.69
2018-06-10T18:50:10.944Z,100780.31
2018-06-10T18:55:13.165Z,100775.66
2018-06-10T19:00:15.490Z,100787.65
2018-06-10T19:05:17.710Z,100791.41
2018-06-10T19:10:19.952Z,100787.62
2018-06-10T19:15:22.432Z,100783.33
2018-06-10T19:20:24.723Z,100795.88
2018-06-10T19:25:28.115Z,100799.38
2018-06-10T19:30:32.778Z,100814.46
2018-06-10T19:35:35.228Z,100826.91
2018-06-10T19:40:37.565Z,100830.74
2018-06-10T19:45:39.778Z,100840.16
2018-06-10T19:50:42.402Z,100841.44
2018-06-10T19:55:45.500Z,100845.69
2018-06-10T20:00:47.905Z,100849.94
2018-06-10T20:05:50.186Z,100856.33
2018-06-10T20:10:52.431Z,100867.78
2018-06-10T20:15:54.695Z,100872.42
2018-06-10T20:20:56.934Z,100874.61
2018-06-10T20:25:59.184Z,100876.64
2018-06-10T20:31:01.478Z,100886.91
2018-06-10T20:36:03.897Z,100892.44
2018-06-10T20:41:06.096Z,100889.44
2018-06-10T20:46:08.340Z,100885.94
2018-06-10T20:51:10.560Z,100888.94
2018-06-10T20:56:12.806Z,100888.49
2018-06-10T21:01:15.055Z,100888.47
2018-06-10T21:06:17.306Z,100890.55
2018-06-10T21:11:19.536Z,100885.02
2018-06-10T21:16:21.741Z,100888.82
2018-06-10T21:21:24.389Z,100887.16
2018-06-10T21:26:26.603Z,100887.92
2018-06-10T21:31:28.733Z,100894.80
2018-06-10T21:36:30.945Z,100896.08
2018-06-10T21:41:33.205Z,100896.08
2018-06-10T21:46:35.344Z,100902.47
2018-06-10T21:51:37.504Z,100909.67
2018-06-10T21:56:39.680Z,100907.11
2018-06-10T22:01:41.977Z,100897.29
2018-06-10T22:06:44.185Z,100904.41
2018-06-10T22:11:46.412Z,100918.13
2018-06-10T22:16:48.600Z,100921.59
2018-06-10T22:21:50.737Z,100925.73
2018-06-10T22:26:53.722Z,100933.27
2018-06-10T22:31:55.919Z,100929.48
2018-06-10T22:36:58.072Z,100927.01
2018-06-10T22:42:00.213Z,100921.36
2018-06-10T22:47:02.419Z,100914.09
2018-06-10T22:52:04.776Z,100922.91
2018-06-10T22:57:07.345Z,100918.51
2018-06-10T23:02:09.944Z,100912.13
2018-06-10T23:07:12.171Z,100913.80
2018-06-10T23:12:14.300Z,100910.74
2018-06-10T23:17:16.443Z,100921.02
2018-06-10T23:22:18.578Z,100910.52
2018-06-10T23:27:20.857Z,100898.78
2018-06-10T23:32:22.967Z,100890.19
2018-06-10T23:37:25.127Z,100885.55
2018-06-10T23:42:27.284Z,100873.88
2018-06-10T23:47:29.450Z,100887.08
2018-06-10T23:52:31.579Z,100885.05
2018-06-10T23:57:33.728Z,100883.31
